Date,TemperatureHighF,TemperatureAvgF,TemperatureLowF,DewpointHighF,DewpointAvgF,DewpointLowF,HumidityHigh,HumidityAvg,HumidityLow,PressureMaxIn,PressureMinIn,WindSpeedMaxMPH,WindSpeedAvgMPH,GustSpeedMaxMPH,PrecipitationSumIn
2013-3-1,38,35,33,33,30,27,98,83,69,29.68,29.53,7,2,12,0.16
2013-3-2,38,34,29,29,27,25,86,76,64,29.67,29.62,7,2,12,0.09
2013-3-3,36,31,27,29,26,23,88,80,71,29.65,29.57,7,2,12,0.05
2013-3-4,34,30,27,26,23,21,87,76,66,29.78,29.58,9,4,16,0.00
2013-3-5,42,33,27,32,27,21,93,78,59,30.07,29.78,6,1,13,0.04
2013-3-6,38,34,31,32,30,26,96,84,69,30.17,30.06,7,2,12,0.02
2013-3-7,34,32,30,31,28,25,96,87,72,30.15,30.06,6,1,12,0.03
2013-3-8,39,33,30,34,30,26,96,88,68,30.21,30.00,4,1,7,0.30
2013-3-9,32,30,26,27,26,24,90,84,81,30.35,30.18,3,1,6,0.17
2013-3-10,46,34,21,31,26,19,94,77,48,30.40,30.26,3,0,5,0.00
2013-3-11,51,39,31,34,31,29,93,77,44,30.29,30.09,3,0,4,0.00
2013-3-12,44,39,33,44,38,31,98,96,90,30.10,29.68,4,0,7,0.82
2013-3-13,44,38,29,40,31,24,98,78,47,29.77,29.70,6,2,12,0.00
2013-3-14,32,28,19,26,18,8,92,68,48,29.83,29.68,9,3,15,0.00
2013-3-15,36,26,16,30,16,6,94,67,36,29.85,29.59,8,2,15,0.00
2013-3-16,33,28,23,24,15,10,80,59,38,29.88,29.68,6,2,10,0.00
2013-3-17,31,24,18,16,10,3,84,57,34,30.32,29.88,10,2,15,0.00
2013-3-18,37,24,8,23,7,1,82,53,23,30.45,30.22,3,0,5,0.00
2013-3-19,32,29,25,31,27,23,95,93,75,30.22,29.70,3,0,7,0.01
2013-3-20,36,28,24,24,22,19,95,78,57,29.75,29.66,8,1,18,0.06
2013-3-21,39,28,17,22,17,12,89,65,35,29.76,29.58,5,1,7,0.19
2013-3-22,37,30,20,26,20,16,86,66,45,29.70,29.61,7,2,12,0.07
2013-3-23,29,26,23,22,20,18,83,77,70,29.70,29.65,6,2,12,0.00
2013-3-25,42,36,24,31,28,21,89,73,59,29.73,29.54,4,1,8,0.02
2013-3-26,46,38,32,31,26,20,93,66,36,29.77,29.57,7,1,12,0.01
2013-3-27,48,38,26,33,26,22,89,66,41,29.89,29.75,8,2,14,0.00
2013-3-28,47,39,34,35,32,30,92,77,53,30.01,29.88,6,1,12,0.00
2013-3-29,50,41,32,36,33,30,91,73,50,30.04,29.97,6,1,12,0.00
2013-3-30,52,40,30,31,25,17,93,62,26,30.09,30.00,6,1,12,0.00
2013-3-31,55,39,24,38,26,21,96,66,28,30.11,29.76,5,0,12,0.13